Terminal Aerodrome Forecast
Issued by NWS

Home | Current Version | Previous Version | Text Only | Print | Product List | Glossary On
Versions: 1 2 3 4 5 6 7 8 9 10 11 12 13 14 15 16
000
FTUS46 KSGX 051514 AAB
TAFONT
TAF AMD
KONT 051514Z 0515/0618 VRB04KT 3SM HZ OVC013
     FM051730 VRB04KT 6SM HZ FEW015
     FM052000 26011KT P6SM FEW080
     FM060500 25006KT P6SM SKC
     FM061100 VRB04KT 5SM BR OVC013
     FM061700 VRB04KT P6SM SCT015=

USA.gov is the U.S. government's official web portal to all federal, state and local government web resources and services.